createdAt,value
2023-02-25T00:01:41.748Z,99131.00
2023-02-25T00:04:12.036Z,99126.00
2023-02-25T00:06:41.058Z,99125.00
2023-02-25T00:09:11.240Z,99116.00
2023-02-25T00:11:39.158Z,99124.00
2023-02-25T00:14:06.920Z,99131.00
2023-02-25T00:16:34.599Z,99124.00
2023-02-25T00:19:03.778Z,99125.00
2023-02-25T00:21:31.773Z,99129.00
2023-02-25T00:24:15.244Z,99129.00
2023-02-25T00:26:43.885Z,99136.00
2023-02-25T00:29:11.528Z,99133.00
2023-02-25T00:31:39.297Z,99141.00
2023-02-25T00:34:07.038Z,99145.00
2023-02-25T00:36:34.682Z,99150.00
2023-02-25T00:39:03.761Z,99150.00
2023-02-25T00:41:31.916Z,99147.00
2023-02-25T00:44:02.179Z,99149.00
2023-02-25T00:46:31.146Z,99150.00
2023-02-25T00:48:59.476Z,99157.00
2023-02-25T00:51:29.249Z,99155.00
2023-02-25T00:53:57.646Z,99162.00
2023-02-25T00:56:27.639Z,99163.00
2023-02-25T00:58:55.412Z,99169.00
2023-02-25T01:01:26.534Z,99181.00
2023-02-25T01:03:56.413Z,99173.00
2023-02-25T01:06:25.219Z,99177.00
2023-02-25T01:08:53.190Z,99176.00
2023-02-25T01:11:29.108Z,99203.00
2023-02-25T01:13:59.876Z,99200.00
2023-02-25T01:16:29.367Z,99206.00
2023-02-25T01:18:59.718Z,99197.00
2023-02-25T01:21:29.966Z,99201.00
2023-02-25T01:24:00.979Z,99205.00
2023-02-25T01:26:30.304Z,99201.00
2023-02-25T01:28:59.658Z,99208.00
2023-02-25T01:31:29.350Z,99210.00
2023-02-25T01:33:58.784Z,99206.00
2023-02-25T01:36:26.613Z,99206.00
2023-02-25T01:38:54.261Z,99222.00
2023-02-25T01:41:21.900Z,99216.00
2023-02-25T01:44:08.277Z,99216.00
2023-02-25T01:46:36.076Z,99214.00
2023-02-25T01:49:09.541Z,99204.00
2023-02-25T01:51:37.988Z,99206.00
2023-02-25T01:54:07.176Z,99215.00
2023-02-25T01:56:39.671Z,99215.00
2023-02-25T01:59:09.271Z,99211.00
2023-02-25T02:01:39.640Z,99215.00
2023-02-25T02:04:09.585Z,99222.00
2023-02-25T02:06:39.421Z,99228.00
2023-02-25T02:09:12.074Z,99225.00
2023-02-25T02:11:39.851Z,99235.00
2023-02-25T02:14:11.616Z,99229.00
2023-02-25T02:16:56.710Z,99244.00
2023-02-25T02:19:37.441Z,99234.00
2023-02-25T02:22:11.439Z,99224.00
2023-02-25T02:25:21.331Z,99226.00
2023-02-25T02:28:27.724Z,99236.00
2023-02-25T02:31:17.009Z,99231.00
2023-02-25T02:33:53.076Z,99229.00
2023-02-25T02:36:30.652Z,99231.00
2023-02-25T02:39:09.176Z,99235.00
2023-02-25T02:41:38.513Z,99243.00
2023-02-25T02:44:14.568Z,99237.00
2023-02-25T02:46:49.662Z,99246.00
2023-02-25T02:49:21.511Z,99232.00
2023-02-25T02:51:56.789Z,99235.00
2023-02-25T02:54:28.056Z,99240.00
2023-02-25T02:56:58.297Z,99247.00
2023-02-25T02:59:29.142Z,99243.00
2023-02-25T03:02:03.763Z,99246.00
2023-02-25T03:04:35.066Z,99249.00
2023-02-25T03:07:05.199Z,99264.00
2023-02-25T03:09:36.706Z,99260.00
2023-02-25T03:12:04.543Z,99272.00
2023-02-25T03:14:32.312Z,99273.00
2023-02-25T03:17:06.276Z,99265.00
2023-02-25T03:19:40.444Z,99281.00
2023-02-25T03:22:12.073Z,99282.00
2023-02-25T03:24:45.231Z,99282.00
2023-02-25T03:27:27.887Z,99278.00
2023-02-25T03:30:04.442Z,99285.00
2023-02-25T03:32:37.523Z,99288.00
2023-02-25T03:35:07.459Z,99289.00
2023-02-25T03:37:38.582Z,99299.00
2023-02-25T03:40:12.171Z,99304.00
2023-02-25T03:42:45.770Z,99315.00
2023-02-25T03:45:14.855Z,99317.00
2023-02-25T03:47:44.516Z,99316.00
2023-02-25T03:50:16.613Z,99316.00
2023-02-25T03:52:44.274Z,99320.00
2023-02-25T03:55:13.070Z,99330.00
2023-02-25T03:57:42.674Z,99332.00
2023-02-25T04:00:19.039Z,99334.00
2023-02-25T04:02:48.898Z,99338.00
2023-02-25T04:05:18.416Z,99341.00
2023-02-25T04:07:46.462Z,99342.00
2023-02-25T04:10:16.530Z,99344.00
2023-02-25T04:12:44.257Z,99360.00
2023-02-25T04:15:14.010Z,99344.00
2023-02-25T04:17:42.081Z,99353.00
2023-02-25T04:20:12.546Z,99355.00
2023-02-25T04:22:40.242Z,99356.00
2023-02-25T04:25:08.720Z,99367.00
2023-02-25T04:27:36.395Z,99378.00
2023-02-25T04:30:04.902Z,99371.00
2023-02-25T04:32:32.761Z,99382.00
2023-02-25T04:35:03.128Z,99380.00
2023-02-25T04:37:32.213Z,99376.00
2023-02-25T04:39:59.995Z,99385.00
2023-02-25T04:42:27.677Z,99386.00
2023-02-25T04:44:56.100Z,99370.00
2023-02-25T04:47:23.798Z,99379.00
2023-02-25T04:49:51.435Z,99384.00
2023-02-25T04:52:19.197Z,99376.00
2023-02-25T04:54:48.385Z,99385.00
2023-02-25T04:57:16.106Z,99381.00
2023-02-25T04:59:44.039Z,99393.00
2023-02-25T05:02:11.768Z,99395.00
2023-02-25T05:04:40.444Z,99371.00
2023-02-25T05:07:09.046Z,99379.00
2023-02-25T05:09:36.908Z,99379.00
2023-02-25T05:12:06.204Z,99382.00
2023-02-25T05:14:34.898Z,99365.00
2023-02-25T05:17:02.597Z,99381.00
2023-02-25T05:19:30.321Z,99381.00
2023-02-25T05:21:57.986Z,99383.00
2023-02-25T05:24:25.649Z,99383.00
2023-02-25T05:26:53.778Z,99390.00
2023-02-25T05:29:22.796Z,99385.00
2023-02-25T05:31:51.742Z,99380.00
2023-02-25T05:34:19.592Z,99390.00
2023-02-25T05:36:47.584Z,99379.00
2023-02-25T05:39:15.592Z,99384.00
2023-02-25T05:41:43.277Z,99387.00
2023-02-25T05:44:11.510Z,99403.00
2023-02-25T05:46:40.540Z,99400.00
2023-02-25T05:49:08.257Z,99403.00
2023-02-25T05:51:35.923Z,99415.00
2023-02-25T05:54:03.830Z,99423.00
2023-02-25T05:56:32.387Z,99429.00
2023-02-25T05:59:00.639Z,99422.00
2023-02-25T06:01:29.479Z,99432.00
2023-02-25T06:03:59.325Z,99439.00
2023-02-25T06:06:28.462Z,99441.00
2023-02-25T06:08:56.276Z,99444.00
2023-02-25T06:11:25.812Z,99453.00
2023-02-25T06:13:55.063Z,99462.00
2023-02-25T06:16:25.853Z,99476.00
2023-02-25T06:18:53.852Z,99483.00
2023-02-25T06:21:23.009Z,99496.00
2023-02-25T06:23:51.209Z,99498.00
2023-02-25T06:26:19.628Z,99497.00
2023-02-25T06:28:47.376Z,99499.00
2023-02-25T06:31:17.173Z,99513.00
2023-02-25T06:33:45.424Z,99516.00
2023-02-25T06:36:14.162Z,99524.00
2023-02-25T06:38:45.987Z,99514.00
2023-02-25T06:41:16.547Z,99519.00
2023-02-25T06:43:44.787Z,99519.00
2023-02-25T06:46:14.309Z,99533.00
2023-02-25T06:48:42.087Z,99534.00
2023-02-25T06:51:11.490Z,99532.00
2023-02-25T06:53:39.786Z,99542.00
2023-02-25T06:56:09.965Z,99541.00
2023-02-25T06:58:38.460Z,99543.00
2023-02-25T07:01:07.814Z,99550.00
2023-02-25T07:03:35.727Z,99550.00
2023-02-25T07:06:03.426Z,99557.00
2023-02-25T07:08:31.114Z,99557.00
2023-02-25T07:11:14.825Z,99566.00
2023-02-25T07:13:43.777Z,99574.00
2023-02-25T07:16:12.007Z,99565.00
2023-02-25T07:18:39.806Z,99570.00
2023-02-25T07:21:07.982Z,99574.00
2023-02-25T07:23:35.868Z,99571.00
2023-02-25T07:26:04.692Z,99576.00
2023-02-25T07:28:34.117Z,99580.00
2023-02-25T07:31:02.161Z,99583.00
2023-02-25T07:33:30.408Z,99590.00
2023-02-25T07:35:58.797Z,99589.00
2023-02-25T07:38:26.515Z,99586.00
2023-02-25T07:40:54.361Z,99599.00
2023-02-25T07:43:22.028Z,99592.00
2023-02-25T07:45:51.697Z,99609.00
2023-02-25T07:48:19.500Z,99603.00
2023-02-25T07:50:47.155Z,99607.00
2023-02-25T07:53:14.832Z,99610.00
2023-02-25T07:55:44.645Z,99600.00
2023-02-25T07:58:12.350Z,99618.00
2023-02-25T08:00:41.750Z,99616.00
2023-02-25T08:03:10.761Z,99626.00
2023-02-25T08:05:38.686Z,99621.00
2023-02-25T08:08:06.985Z,99621.00
2023-02-25T08:10:34.919Z,99618.00
2023-02-25T08:13:02.950Z,99612.00
2023-02-25T08:15:30.617Z,99622.00
2023-02-25T08:17:58.767Z,99625.00
2023-02-25T08:20:27.940Z,99623.00
2023-02-25T08:22:57.032Z,99617.00
2023-02-25T08:25:24.662Z,99639.00
2023-02-25T08:27:53.109Z,99630.00
2023-02-25T08:30:21.794Z,99626.00
2023-02-25T08:32:49.650Z,99633.00
2023-02-25T08:35:17.453Z,99641.00
2023-02-25T08:37:46.566Z,99644.00
2023-02-25T08:40:14.907Z,99642.00
2023-02-25T08:42:42.545Z,99646.00
2023-02-25T08:45:11.221Z,99646.00
2023-02-25T08:47:39.319Z,99654.00
2023-02-25T08:50:08.212Z,99656.00
2023-02-25T08:52:35.912Z,99663.00
2023-02-25T08:55:05.737Z,99663.00
2023-02-25T08:57:34.182Z,99667.00
2023-02-25T09:00:02.651Z,99667.00
2023-02-25T09:02:31.416Z,99677.00
2023-02-25T09:04:59.063Z,99676.00
2023-02-25T09:07:27.073Z,99683.00
2023-02-25T09:09:54.751Z,99677.00
2023-02-25T09:12:24.884Z,99680.00
2023-02-25T09:14:52.658Z,99686.00
2023-02-25T09:17:20.320Z,99699.00
2023-02-25T09:19:48.003Z,99699.00
2023-02-25T09:22:15.670Z,99698.00
2023-02-25T09:24:43.372Z,99698.00
2023-02-25T09:27:11.442Z,99700.00
2023-02-25T09:29:41.429Z,99707.00
2023-02-25T09:32:17.362Z,99711.00
2023-02-25T09:34:45.073Z,99721.00
2023-02-25T09:37:14.346Z,99739.00
2023-02-25T09:39:43.028Z,99727.00
2023-02-25T09:42:14.841Z,99732.00
2023-02-25T09:44:46.872Z,99741.00
2023-02-25T09:47:19.388Z,99738.00
2023-02-25T09:49:53.010Z,99745.00
2023-02-25T09:52:28.673Z,99748.00
2023-02-25T09:55:00.696Z,99761.00
2023-02-25T09:57:29.763Z,99760.00
2023-02-25T10:00:01.756Z,99752.00
2023-02-25T10:02:36.866Z,99764.00
2023-02-25T10:05:22.930Z,99771.00
2023-02-25T10:07:58.544Z,99771.00
2023-02-25T10:10:34.748Z,99777.00
2023-02-25T10:13:13.560Z,99790.00
2023-02-25T10:15:56.247Z,99788.00
2023-02-25T10:18:49.752Z,99800.00
2023-02-25T10:21:30.116Z,99793.00
2023-02-25T10:24:23.411Z,99792.00
2023-02-25T10:26:55.764Z,99804.00
2023-02-25T10:29:29.245Z,99800.00
2023-02-25T10:32:01.260Z,99796.00
2023-02-25T10:34:32.755Z,99805.00
2023-02-25T10:37:01.472Z,99821.00
2023-02-25T10:39:31.199Z,99824.00
2023-02-25T10:41:59.349Z,99820.00
2023-02-25T10:44:27.016Z,99826.00
2023-02-25T10:46:59.902Z,99828.00
2023-02-25T10:49:30.137Z,99823.00
2023-02-25T10:52:00.249Z,99819.00
2023-02-25T10:54:28.677Z,99832.00
2023-02-25T10:56:58.725Z,99834.00
2023-02-25T10:59:31.367Z,99837.00
2023-02-25T11:02:02.008Z,99830.00
2023-02-25T11:04:34.327Z,99837.00
2023-02-25T11:07:02.125Z,99841.00
2023-02-25T11:09:35.344Z,99843.00
2023-02-25T11:12:12.385Z,99848.00
2023-02-25T11:14:40.552Z,99846.00
2023-02-25T11:17:15.771Z,99851.00
2023-02-25T11:19:46.847Z,99841.00
2023-02-25T11:22:19.913Z,99837.00
2023-02-25T11:24:59.450Z,99862.00
2023-02-25T11:27:36.639Z,99870.00
2023-02-25T11:30:09.155Z,99859.00
2023-02-25T11:32:42.757Z,99871.00
2023-02-25T11:35:18.285Z,99866.00
2023-02-25T11:37:48.019Z,99869.00
2023-02-25T11:40:25.491Z,99869.00
2023-02-25T11:43:11.065Z,99875.00
2023-02-25T11:45:41.289Z,99888.00
2023-02-25T11:48:19.562Z,99883.00
2023-02-25T11:50:52.550Z,99886.00
2023-02-25T11:53:33.707Z,99899.00
2023-02-25T11:56:11.506Z,99893.00
2023-02-25T11:58:51.155Z,99899.00
2023-02-25T12:01:25.859Z,99904.00
2023-02-25T12:04:11.115Z,99904.00
2023-02-25T12:07:08.331Z,99902.00
2023-02-25T12:10:11.864Z,99912.00
2023-02-25T12:13:17.065Z,99907.00
2023-02-25T12:16:08.214Z,99911.00
2023-02-25T12:19:12.361Z,99917.00
2023-02-25T12:22:15.247Z,99927.00
2023-02-25T12:25:03.745Z,99915.00
2023-02-25T12:28:00.710Z,99936.00
2023-02-25T12:31:05.245Z,99937.00
2023-02-25T12:33:48.243Z,99943.00
2023-02-25T12:36:36.289Z,99939.00
2023-02-25T12:39:31.559Z,99938.00
2023-02-25T12:42:14.140Z,99929.00
2023-02-25T12:45:12.114Z,99934.00
2023-02-25T12:47:53.797Z,99942.00
2023-02-25T12:50:52.653Z,99936.00
2023-02-25T12:53:35.806Z,99957.00
2023-02-25T12:56:16.756Z,99949.00
2023-02-25T12:58:53.284Z,99948.00
2023-02-25T13:01:34.615Z,99960.00
2023-02-25T13:04:29.415Z,99952.00
2023-02-25T13:07:25.719Z,99964.00
2023-02-25T13:10:06.540Z,99959.00
2023-02-25T13:12:49.141Z,99976.00
2023-02-25T13:15:21.702Z,99977.00
2023-02-25T13:18:05.781Z,99976.00
2023-02-25T13:20:59.252Z,99992.00
2023-02-25T13:23:44.577Z,99988.00
2023-02-25T13:26:30.124Z,99992.00
2023-02-25T13:29:16.479Z,99997.00
2023-02-25T13:31:52.246Z,100005.00
2023-02-25T13:34:32.013Z,100004.00
2023-02-25T13:37:19.407Z,100002.00
2023-02-25T13:40:27.271Z,100005.00
2023-02-25T13:43:01.123Z,100006.00
2023-02-25T13:45:50.606Z,100007.00
2023-02-25T13:48:43.627Z,99993.00
2023-02-25T13:51:25.830Z,100006.00
2023-02-25T13:54:20.975Z,100017.00
2023-02-25T13:57:11.286Z,100011.00
2023-02-25T14:00:01.998Z,100014.00
2023-02-25T14:02:50.647Z,100019.00
2023-02-25T14:05:45.256Z,100031.00
2023-02-25T14:08:38.709Z,100027.00
2023-02-25T14:11:26.840Z,100032.00
2023-02-25T14:14:07.571Z,100028.00
2023-02-25T14:16:52.002Z,100042.00
2023-02-25T14:19:39.600Z,100039.00
2023-02-25T14:22:25.421Z,100062.00
2023-02-25T14:25:03.428Z,100058.00
2023-02-25T14:27:38.717Z,100053.00
2023-02-25T14:30:24.312Z,100053.00
2023-02-25T14:33:05.099Z,100048.00
2023-02-25T14:36:05.096Z,100059.00
2023-02-25T14:38:46.691Z,100074.00
2023-02-25T14:41:31.010Z,100064.00
2023-02-25T14:44:02.348Z,100079.00
2023-02-25T14:46:34.978Z,100095.00
2023-02-25T14:49:10.456Z,100089.00
2023-02-25T14:52:02.208Z,100091.00
2023-02-25T14:55:18.062Z,100097.00
2023-02-25T14:58:31.010Z,100102.00
2023-02-25T15:01:18.588Z,100103.00
2023-02-25T15:04:31.336Z,100120.00
2023-02-25T15:07:16.121Z,100119.00
2023-02-25T15:10:18.271Z,100122.00
2023-02-25T15:13:00.925Z,100127.00
2023-02-25T15:16:04.755Z,100130.00
2023-02-25T15:19:01.858Z,100138.00
2023-02-25T15:21:42.431Z,100139.00
2023-02-25T15:24:12.346Z,100137.00
2023-02-25T15:26:46.070Z,100138.00
2023-02-25T15:29:47.064Z,100150.00
2023-02-25T15:32:24.570Z,100148.00
2023-02-25T15:34:58.138Z,100158.00
2023-02-25T15:37:33.727Z,100156.00
2023-02-25T15:40:44.899Z,100165.00
2023-02-25T15:43:51.911Z,100161.00
2023-02-25T15:46:47.147Z,100178.00
2023-02-25T15:49:23.568Z,100172.00
2023-02-25T15:51:54.217Z,100182.00
2023-02-25T15:54:51.071Z,100179.00
2023-02-25T15:57:37.236Z,100186.00
2023-02-25T16:00:25.976Z,100184.00
2023-02-25T16:02:58.514Z,100188.00
2023-02-25T16:05:34.329Z,100196.00
2023-02-25T16:08:19.582Z,100199.00
2023-02-25T16:10:52.189Z,100202.00
2023-02-25T16:13:26.989Z,100213.00
2023-02-25T16:15:57.571Z,100212.00
2023-02-25T16:18:33.469Z,100210.00
2023-02-25T16:21:05.986Z,100231.00
2023-02-25T16:23:35.008Z,100222.00
2023-02-25T16:26:14.467Z,100230.00
2023-02-25T16:28:51.387Z,100235.00
2023-02-25T16:31:23.111Z,100236.00
2023-02-25T16:33:58.052Z,100240.00
2023-02-25T16:36:35.112Z,100263.00
2023-02-25T16:39:05.017Z,100260.00
2023-02-25T16:41:38.479Z,100273.00
2023-02-25T16:44:07.137Z,100262.00
2023-02-25T16:46:39.006Z,100260.00
2023-02-25T16:49:11.038Z,100245.00
2023-02-25T16:51:41.281Z,100277.00
2023-02-25T16:54:14.011Z,100279.00
2023-02-25T16:56:46.319Z,100278.00
2023-02-25T16:59:18.802Z,100288.00
2023-02-25T17:01:55.124Z,100286.00
2023-02-25T17:04:25.752Z,100288.00
2023-02-25T17:07:09.783Z,100305.00
2023-02-25T17:09:44.511Z,100302.00
2023-02-25T17:12:18.814Z,100309.00
2023-02-25T17:14:49.805Z,100307.00
2023-02-25T17:17:22.184Z,100304.00
2023-02-25T17:19:52.743Z,100314.00
2023-02-25T17:22:22.412Z,100314.00
2023-02-25T17:24:51.962Z,100317.00
2023-02-25T17:27:22.371Z,100322.00
2023-02-25T17:29:50.489Z,100330.00
2023-02-25T17:32:24.194Z,100333.00
2023-02-25T17:34:55.279Z,100335.00
2023-02-25T17:37:25.645Z,100335.00
2023-02-25T17:39:54.265Z,100335.00
2023-02-25T17:42:41.294Z,100342.00
2023-02-25T17:45:44.787Z,100335.00
2023-02-25T17:48:17.154Z,100349.00
2023-02-25T17:50:45.474Z,100358.00
2023-02-25T17:53:29.963Z,100353.00
2023-02-25T17:55:58.742Z,100352.00
2023-02-25T17:58:27.991Z,100362.00
2023-02-25T18:01:02.655Z,100351.00
2023-02-25T18:03:30.845Z,100359.00
2023-02-25T18:06:02.411Z,100349.00
2023-02-25T18:08:30.738Z,100377.00
2023-02-25T18:11:03.728Z,100381.00
2023-02-25T18:13:36.211Z,100386.00
2023-02-25T18:16:39.328Z,100386.00
2023-02-25T18:19:22.932Z,100371.00
2023-02-25T18:21:50.765Z,100392.00
2023-02-25T18:24:27.188Z,100395.00
2023-02-25T18:27:03.299Z,100397.00
2023-02-25T18:29:33.145Z,100391.00
2023-02-25T18:32:01.007Z,100395.00
2023-02-25T18:34:28.745Z,100407.00
2023-02-25T18:36:56.405Z,100414.00
2023-02-25T18:39:26.801Z,100416.00
2023-02-25T18:41:54.416Z,100425.00
2023-02-25T18:44:22.210Z,100421.00
2023-02-25T18:46:51.178Z,100420.00
2023-02-25T18:49:19.599Z,100420.00
2023-02-25T18:51:49.548Z,100421.00
2023-02-25T18:54:18.081Z,100428.00
2023-02-25T18:56:45.888Z,100430.00
2023-02-25T18:59:13.537Z,100427.00
2023-02-25T19:01:41.440Z,100425.00
2023-02-25T19:04:15.936Z,100434.00
2023-02-25T19:06:43.643Z,100427.00
2023-02-25T19:09:11.453Z,100431.00
2023-02-25T19:11:39.189Z,100433.00
2023-02-25T19:14:08.253Z,100440.00
2023-02-25T19:16:35.977Z,100439.00
2023-02-25T19:19:03.632Z,100439.00
2023-02-25T19:21:32.625Z,100438.00
2023-02-25T19:24:00.283Z,100442.00
2023-02-25T19:26:28.157Z,100436.00
2023-02-25T19:28:55.888Z,100445.00
2023-02-25T19:31:23.522Z,100447.00
2023-02-25T19:33:51.199Z,100446.00
2023-02-25T19:36:18.821Z,100447.00
2023-02-25T19:38:47.849Z,100460.00
2023-02-25T19:41:15.526Z,100456.00
2023-02-25T19:43:43.169Z,100463.00
2023-02-25T19:46:11.214Z,100468.00
2023-02-25T19:48:38.973Z,100466.00
2023-02-25T19:51:07.818Z,100454.00
2023-02-25T19:53:36.117Z,100473.00
2023-02-25T19:56:07.310Z,100479.00
2023-02-25T19:58:34.998Z,100477.00
2023-02-25T20:01:04.662Z,100482.00
2023-02-25T20:03:32.662Z,100491.00
2023-02-25T20:06:06.790Z,100494.00
2023-02-25T20:08:35.644Z,100495.00
2023-02-25T20:11:08.235Z,100480.00
2023-02-25T20:13:38.136Z,100490.00
2023-02-25T20:16:06.630Z,100497.00
2023-02-25T20:18:34.269Z,100491.00
2023-02-25T20:21:02.035Z,100490.00
2023-02-25T20:23:30.098Z,100509.00
2023-02-25T20:26:06.747Z,100506.00
2023-02-25T20:28:34.899Z,100520.00
2023-02-25T20:31:06.590Z,100524.00
2023-02-25T20:33:35.150Z,100531.00
2023-02-25T20:36:14.747Z,100528.00
2023-02-25T20:38:51.896Z,100524.00
2023-02-25T20:41:21.395Z,100543.00
2023-02-25T20:43:49.215Z,100541.00
2023-02-25T20:46:24.277Z,100538.00
2023-02-25T20:48:52.781Z,100540.00
2023-02-25T20:51:21.190Z,100523.00
2023-02-25T20:53:49.384Z,100534.00
2023-02-25T20:56:21.926Z,100528.00
2023-02-25T20:58:51.792Z,100542.00
2023-02-25T21:01:19.934Z,100544.00
2023-02-25T21:03:48.216Z,100543.00
2023-02-25T21:06:16.166Z,100553.00
2023-02-25T21:08:43.902Z,100546.00
2023-02-25T21:11:11.539Z,100552.00
2023-02-25T21:13:39.336Z,100559.00
2023-02-25T21:16:09.482Z,100556.00
2023-02-25T21:18:37.142Z,100559.00
2023-02-25T21:21:07.576Z,100561.00
2023-02-25T21:23:36.023Z,100575.00
2023-02-25T21:26:04.872Z,100574.00
2023-02-25T21:28:33.332Z,100570.00
2023-02-25T21:31:02.789Z,100575.00
2023-02-25T21:33:32.810Z,100578.00
2023-02-25T21:36:01.656Z,100576.00
2023-02-25T21:38:29.982Z,100574.00
2023-02-25T21:40:58.447Z,100591.00
2023-02-25T21:43:26.199Z,100592.00
2023-02-25T21:45:54.798Z,100601.00
2023-02-25T21:48:23.592Z,100598.00
2023-02-25T21:50:53.093Z,100602.00
2023-02-25T21:53:21.732Z,100605.00
2023-02-25T21:55:49.456Z,100602.00
2023-02-25T21:58:17.205Z,100604.00
2023-02-25T22:00:44.878Z,100601.00
2023-02-25T22:03:12.683Z,100605.00
2023-02-25T22:05:44.571Z,100607.00
2023-02-25T22:08:14.541Z,100615.00
2023-02-25T22:10:42.285Z,100620.00
2023-02-25T22:13:10.019Z,100615.00
2023-02-25T22:15:37.780Z,100610.00
2023-02-25T22:18:05.662Z,100622.00
2023-02-25T22:20:33.329Z,100626.00
2023-02-25T22:23:00.993Z,100617.00
2023-02-25T22:25:29.998Z,100614.00
2023-02-25T22:27:57.661Z,100625.00
2023-02-25T22:30:25.365Z,100637.00
2023-02-25T22:32:53.051Z,100620.00
2023-02-25T22:35:21.249Z,100629.00
2023-02-25T22:37:48.907Z,100636.00
2023-02-25T22:40:16.709Z,100640.00
2023-02-25T22:42:45.745Z,100629.00
2023-02-25T22:45:13.426Z,100643.00
2023-02-25T22:47:41.108Z,100642.00
2023-02-25T22:50:09.539Z,100636.00
2023-02-25T22:52:37.269Z,100653.00
2023-02-25T22:55:05.471Z,100652.00
2023-02-25T22:57:33.176Z,100655.00
2023-02-25T23:00:02.203Z,100657.00
2023-02-25T23:02:29.881Z,100663.00
2023-02-25T23:04:57.512Z,100673.00
2023-02-25T23:07:25.185Z,100662.00
2023-02-25T23:09:53.105Z,100661.00
2023-02-25T23:12:21.428Z,100676.00
2023-02-25T23:14:49.193Z,100677.00
2023-02-25T23:17:18.596Z,100673.00
2023-02-25T23:19:46.355Z,100684.00
2023-02-25T23:22:21.284Z,100682.00
2023-02-25T23:24:48.929Z,100694.00
2023-02-25T23:27:16.601Z,100679.00
2023-02-25T23:29:44.295Z,100686.00
2023-02-25T23:32:11.983Z,100694.00
2023-02-25T23:34:41.068Z,100695.00
2023-02-25T23:37:08.721Z,100696.00
2023-02-25T23:39:36.578Z,100699.00
2023-02-25T23:42:04.753Z,100707.00
2023-02-25T23:44:32.384Z,100711.00
2023-02-25T23:47:00.096Z,100708.00
2023-02-25T23:49:28.171Z,100704.00
2023-02-25T23:51:57.207Z,100717.00
2023-02-25T23:54:24.903Z,100723.00
2023-02-25T23:56:52.618Z,100720.00
2023-02-25T23:59:23.017Z,100724.00
